Time;durP1;ratioP1;P1;durP2;ratioP2;P2;SDS_P1;SDS_P2;PMS_P1;PMS_P2;Temp;Humidity;BMP_temperature;BMP_pressure;BME280_temperature;BME280_humidity;BME280_pressure;Samples;Min_cycle;Max_cycle;Signal;HPM_P1;HPM_P2
2022/03/28 00:01:50;;;;;;;16.17;7.63;;;6.80;1.00;7.70;94950.00;;;;7390368;19;20501;-80
2022/03/28 00:04:25;;;;;;;18.17;8.87;;;6.90;99.90;8.00;94971.00;;;;7390216;19;20140;-80
2022/03/28 00:06:53;;;;;;;19.37;8.60;;;7.00;99.90;8.10;94933.00;;;;7390066;19;20144;-80
2022/03/28 00:09:20;;;;;;;16.10;8.10;;;7.20;99.90;8.00;94953.00;;;;7389086;19;20164;-79
2022/03/28 00:11:56;;;;;;;16.10;8.33;;;7.20;99.90;7.90;94927.00;;;;7390614;19;20144;-80
2022/03/28 00:14:24;;;;;;;11.67;7.60;;;7.10;99.90;8.00;94946.00;;;;7391362;19;20129;-79
2022/03/28 00:16:51;;;;;;;13.63;8.00;;;7.10;99.90;7.90;94956.00;;;;7389726;19;20168;-79
2022/03/28 00:19:24;;;;;;;13.97;8.33;;;7.10;99.90;8.00;94929.00;;;;7390191;19;20501;-79
2022/03/28 00:21:53;;;;;;;13.80;7.67;;;7.10;99.90;8.20;94951.00;;;;7389808;19;20481;-79
2022/03/28 00:24:21;;;;;;;16.07;8.43;;;7.30;99.90;8.20;94915.00;;;;7389327;19;20136;-79
2022/03/28 00:26:55;;;;;;;13.80;7.87;;;7.30;99.90;8.30;94909.00;;;;7391179;19;20144;-81
2022/03/28 00:29:22;;;;;;;14.47;7.83;;;7.40;99.90;8.70;94912.00;;;;7388772;19;20141;-79
2022/03/28 00:31:50;;;;;;;16.87;9.47;;;7.70;99.90;8.80;94939.00;;;;7390004;19;20497;-80
2022/03/28 00:34:24;;;;;;;18.50;9.77;;;7.80;99.90;9.00;94909.00;;;;7389485;19;20141;-80
2022/03/28 00:36:52;;;;;;;16.47;9.37;;;8.00;99.90;9.20;94919.00;;;;7388975;19;20133;-78
2022/03/28 00:39:26;;;;;;;19.67;9.70;;;8.30;99.90;9.50;94905.00;;;;7387899;19;20623;-79
2022/03/28 00:42:06;;;;;;;18.50;10.17;;;8.40;99.90;9.80;94905.00;;;;7390051;19;20148;-78
2022/03/28 00:44:34;;;;;;;17.47;10.70;;;8.70;99.90;10.20;94924.00;;;;7390156;19;20191;-83
2022/03/28 00:47:08;;;;;;;16.83;9.83;;;9.10;99.90;10.30;94908.00;;;;7389593;19;20136;-79
2022/03/28 00:49:38;;;;;;;23.23;9.43;;;9.30;99.90;10.30;94919.00;;;;7387863;19;20163;-80
2022/03/28 00:52:07;;;;;;;16.20;9.53;;;9.40;99.90;10.00;94907.00;;;;7390682;19;20117;-78
2022/03/28 00:54:41;;;;;;;13.00;8.83;;;9.30;99.90;9.30;94870.00;;;;7389545;19;20156;-79
2022/03/28 00:57:08;;;;;;;14.47;8.13;;;9.00;99.90;8.80;94897.00;;;;7381286;19;20687;-78
2022/03/28 00:59:37;;;;;;;17.03;9.03;;;8.70;99.90;8.60;94916.00;;;;7388186;19;20178;-79
2022/03/28 01:02:11;;;;;;;13.47;8.70;;;8.40;99.90;8.80;94907.00;;;;7393862;19;20614;-74
2022/03/28 01:04:39;;;;;;;17.27;9.20;;;8.30;99.90;8.70;94880.00;;;;7398722;19;20196;-74
2022/03/28 01:07:07;;;;;;;15.10;9.73;;;8.10;99.90;8.40;94878.00;;;;7395564;19;20444;-74
2022/03/28 01:09:41;;;;;;;14.97;8.83;;;7.90;99.90;8.20;94881.00;;;;7395172;19;20556;-74
2022/03/28 01:12:10;;;;;;;16.07;9.33;;;7.70;99.90;8.30;94857.00;;;;7396650;19;20141;-74
2022/03/28 01:14:38;;;;;;;17.40;9.33;;;7.60;99.90;8.40;94886.00;;;;7396625;19;20137;-73
2022/03/28 01:19:58;;;;;;;18.80;9.93;;;7.60;99.90;8.40;94904.00;;;;7395360;19;20148;-74
2022/03/28 01:22:33;;;;;;;17.80;9.60;;;7.60;99.90;8.50;94894.00;;;;7395284;19;20136;-73
2022/03/28 01:25:03;;;;;;;15.03;8.70;;;7.70;99.90;8.30;94859.00;;;;7395548;19;20245;-73
2022/03/28 01:27:31;;;;;;;17.93;9.20;;;7.60;99.90;8.40;94866.00;;;;7397613;19;20475;-73
2022/03/28 01:30:07;;;;;;;17.27;9.93;;;7.60;99.90;8.70;94878.00;;;;7394493;19;20506;-73
2022/03/28 01:32:34;;;;;;;14.03;9.60;;;7.70;99.90;8.80;94865.00;;;;7395118;19;20168;-73
2022/03/28 01:35:02;;;;;;;18.10;8.97;;;7.80;99.90;8.50;94855.00;;;;7396164;19;20158;-73
2022/03/28 01:37:35;;;;;;;16.13;8.70;;;7.80;99.90;8.40;94880.00;;;;7395368;19;20140;-73
2022/03/28 01:40:16;;;;;;;19.07;9.40;;;7.70;99.90;8.30;94883.00;;;;7393427;19;20161;-73
2022/03/28 01:42:51;;;;;;;18.47;9.87;;;7.60;99.90;8.40;94871.00;;;;7397951;19;20196;-73
2022/03/28 01:45:18;;;;;;;17.50;9.30;;;7.70;99.90;8.20;94882.00;;;;7394462;19;20129;-74
2022/03/28 01:47:46;;;;;;;14.77;9.30;;;7.60;99.90;8.30;94870.00;;;;7395865;19;20139;-73
2022/03/28 01:50:21;;;;;;;16.97;8.73;;;7.60;99.90;8.30;94879.00;;;;7394798;19;20590;-74
2022/03/28 01:52:50;;;;;;;19.00;9.90;;;7.60;99.90;8.30;94878.00;;;;7394767;19;20129;-73
2022/03/28 01:55:21;;;;;;;16.33;9.83;;;7.70;99.90;8.50;94842.00;;;;7395718;19;20132;-74
2022/03/28 01:57:56;;;;;;;17.17;8.97;;;7.60;99.90;8.30;94875.00;;;;7394715;19;20471;-74
2022/03/28 02:00:26;;;;;;;16.53;9.00;;;7.60;99.90;8.40;94864.00;;;;7393615;19;20129;-74
2022/03/28 02:02:53;;;;;;;15.67;9.67;;;7.60;99.90;8.30;94871.00;;;;7396992;19;20140;-74
2022/03/28 02:05:27;;;;;;;15.17;9.47;;;7.60;99.90;8.40;94867.00;;;;7393973;19;20137;-74
2022/03/28 02:07:55;;;;;;;19.13;8.90;;;7.60;99.90;8.30;94861.00;;;;7394369;19;20145;-74
2022/03/28 02:10:22;;;;;;;17.63;9.97;;;7.50;99.90;8.10;94847.00;;;;7392918;19;20137;-74
2022/03/28 02:12:56;;;;;;;20.03;9.90;;;7.50;99.90;8.20;94854.00;;;;7393643;19;20494;-74
2022/03/28 02:15:25;;;;;;;20.63;9.80;;;7.40;99.90;8.00;94856.00;;;;7394135;19;20148;-74
2022/03/28 02:17:52;;;;;;;19.23;10.07;;;7.40;99.90;7.90;94843.00;;;;7395185;19;20124;-74
2022/03/28 02:20:25;;;;;;;15.23;8.73;;;7.30;99.90;7.70;94863.00;;;;7394524;19;20137;-74
2022/03/28 02:22:52;;;;;;;22.17;10.80;;;7.20;99.90;8.10;94841.00;;;;7394372;19;20598;-74
2022/03/28 02:25:20;;;;;;;17.93;10.20;;;7.20;99.90;8.00;94840.00;;;;7394998;19;20129;-73
2022/03/28 02:27:53;;;;;;;22.57;10.90;;;7.20;99.90;7.90;94839.00;;;;7393461;19;20580;-74
2022/03/28 02:30:20;;;;;;;17.67;9.93;;;7.20;99.90;7.80;94834.00;;;;7391408;19;20164;-73
2022/03/28 02:32:48;;;;;;;19.70;9.80;;;7.10;99.90;7.60;94848.00;;;;7394142;19;20596;-73
2022/03/28 02:35:24;;;;;;;20.50;10.90;;;7.10;99.90;8.00;94840.00;;;;7393303;19;20152;-74
2022/03/28 02:37:51;;;;;;;17.07;9.90;;;7.10;99.90;7.80;94844.00;;;;7393300;19;20144;-73
2022/03/28 02:40:19;;;;;;;17.40;10.23;;;7.00;99.90;7.80;94824.00;;;;7392175;19;20152;-74
2022/03/28 02:42:52;;;;;;;16.33;9.93;;;7.10;99.90;7.80;94846.00;;;;7394784;19;20139;-74
2022/03/28 02:45:20;;;;;;;16.50;9.77;;;7.00;99.90;8.10;94826.00;;;;7394796;19;20606;-74
2022/03/28 02:47:47;;;;;;;19.07;10.73;;;7.10;99.90;8.30;94802.00;;;;7394481;19;20132;-73
2022/03/28 02:50:23;;;;;;;19.30;11.03;;;7.20;99.90;8.10;94810.00;;;;7390888;19;20151;-73
2022/03/28 02:52:50;;;;;;;15.83;9.70;;;7.20;99.90;8.00;94826.00;;;;7392696;19;20606;-75
2022/03/28 02:55:18;;;;;;;18.20;10.37;;;7.30;99.90;8.10;94836.00;;;;7394697;19;20136;-73
2022/03/28 02:57:52;;;;;;;17.87;10.50;;;7.30;99.90;7.90;94815.00;;;;7393650;19;20591;-73
2022/03/28 03:00:20;;;;;;;19.40;11.07;;;7.30;99.90;8.20;94812.00;;;;7391658;19;20620;-74
2022/03/28 03:02:48;;;;;;;18.67;11.33;;;7.30;99.90;8.20;94800.00;;;;7392837;19;20142;-74
2022/03/28 03:05:23;;;;;;;23.73;12.10;;;7.30;99.90;8.20;94810.00;;;;7393251;19;20133;-74
2022/03/28 03:07:51;;;;;;;20.00;11.40;;;7.30;99.90;8.20;94827.00;;;;7392451;19;20163;-73
2022/03/28 03:10:18;;;;;;;20.07;11.93;;;7.30;99.90;8.40;94810.00;;;;7391597;19;20137;-73
2022/03/28 03:12:51;;;;;;;18.57;10.47;;;7.50;99.90;8.20;94820.00;;;;7393386;19;20147;-74
2022/03/28 03:15:19;;;;;;;21.30;10.93;;;7.50;99.90;8.20;94828.00;;;;7392714;19;20140;-74
2022/03/28 03:17:46;;;;;;;16.47;10.73;;;7.40;99.90;8.20;94815.00;;;;7393643;19;20125;-73
2022/03/28 03:20:19;;;;;;;17.37;10.97;;;7.50;99.90;8.50;94803.00;;;;7392163;19;20688;-74
2022/03/28 03:22:47;;;;;;;19.70;11.00;;;7.50;99.90;8.50;94788.00;;;;7391882;19;20463;-74
2022/03/28 03:25:14;;;;;;;18.43;10.67;;;7.60;99.90;8.20;94817.00;;;;7390712;19;20213;-73
2022/03/28 03:27:51;;;;;;;17.27;11.00;;;7.60;99.90;8.30;94821.00;;;;7394774;19;20139;-73
2022/03/28 03:30:20;;;;;;;18.03;10.93;;;7.50;99.90;8.00;94789.00;;;;7390270;19;20220;-74
2022/03/28 03:32:48;;;;;;;18.33;11.27;;;7.40;99.90;8.10;94793.00;;;;7391606;19;20174;-74
2022/03/28 03:35:21;;;;;;;21.63;11.30;;;7.40;99.90;8.20;94810.00;;;;7393699;19;20463;-74
2022/03/28 03:37:50;;;;;;;19.20;11.23;;;7.40;99.90;7.90;94809.00;;;;7391815;19;20145;-74
2022/03/28 03:40:17;;;;;;;20.70;11.93;;;7.30;99.90;8.10;94798.00;;;;7389589;19;20179;-73
2022/03/28 03:42:58;;;;;;;16.63;10.07;;;7.20;99.90;8.10;94810.00;;;;7392198;19;20691;-73
2022/03/28 03:45:25;;;;;;;15.87;10.80;;;7.30;99.90;8.10;94772.00;;;;7391833;19;20140;-74
2022/03/28 03:48:00;;;;;;;21.37;11.20;;;7.30;99.90;8.10;94751.00;;;;7393811;19;20121;-73
2022/03/28 03:50:27;;;;;;;22.83;11.17;;;7.30;99.90;7.70;94793.00;;;;7391040;19;20148;-74
2022/03/28 03:52:55;;;;;;;20.87;11.53;;;7.20;99.90;7.40;94799.00;;;;7392144;19;20117;-73
2022/03/28 03:55:28;;;;;;;18.30;10.57;;;7.00;99.90;7.80;94776.00;;;;7390755;19;20145;-73
2022/03/28 03:57:58;;;;;;;16.43;10.93;;;6.90;99.90;7.80;94809.00;;;;7391649;19;20136;-73
2022/03/28 04:00:25;;;;;;;18.93;11.10;;;6.90;99.90;7.90;94783.00;;;;7391273;19;20728;-74
2022/03/28 04:02:58;;;;;;;20.97;10.47;;;7.00;99.90;7.80;94787.00;;;;7392247;19;20129;-74
2022/03/28 04:05:27;;;;;;;19.03;11.13;;;7.00;99.90;7.60;94804.00;;;;7391593;19;20587;-72
2022/03/28 04:07:54;;;;;;;24.70;11.30;;;6.90;99.90;7.60;94767.00;;;;7391263;19;20128;-73
2022/03/28 04:10:30;;;;;;;17.33;10.90;;;6.90;99.90;7.60;94795.00;;;;7388068;19;20623;-74
2022/03/28 04:12:57;;;;;;;18.20;10.90;;;6.90;99.90;7.60;94783.00;;;;7390729;19;20149;-73
2022/03/28 04:15:26;;;;;;;17.37;11.07;;;6.80;99.90;7.50;94801.00;;;;7389598;19;20129;-73
2022/03/28 04:18:02;;;;;;;20.07;11.17;;;6.70;99.90;7.40;94796.00;;;;7392367;19;20144;-73
2022/03/28 04:20:32;;;;;;;21.63;10.20;;;6.70;99.90;7.30;94767.00;;;;7391482;19;20485;-74
2022/03/28 04:22:59;;;;;;;20.40;10.73;;;6.60;99.90;7.40;94752.00;;;;7389517;19;20132;-73
2022/03/28 04:25:35;;;;;;;18.10;10.57;;;6.60;99.90;7.60;94774.00;;;;7389356;19;20610;-73
2022/03/28 04:28:06;;;;;;;23.73;10.80;;;6.70;99.90;7.90;94798.00;;;;7391846;19;20120;-74
2022/03/28 04:30:41;;;;;;;18.90;10.87;;;6.80;99.90;7.90;94798.00;;;;7389218;19;20129;-73
2022/03/28 04:33:09;;;;;;;18.20;10.87;;;6.90;99.90;7.70;94774.00;;;;7391163;19;20121;-73
2022/03/28 04:35:39;;;;;;;21.37;10.93;;;7.00;99.90;7.90;94795.00;;;;7390589;19;20140;-73
2022/03/28 04:38:12;;;;;;;17.97;11.03;;;7.00;99.90;7.70;94771.00;;;;7397382;19;20136;-74
2022/03/28 04:40:47;;;;;;;17.50;11.23;;;7.00;99.90;7.80;94754.00;;;;7395083;19;20587;-73
2022/03/28 04:43:21;;;;;;;16.00;10.03;;;7.00;99.90;7.70;94778.00;;;;7397959;19;20124;-73
2022/03/28 04:45:49;;;;;;;20.93;11.33;;;7.00;99.90;8.00;94774.00;;;;7398248;19;20141;-73
2022/03/28 04:48:17;;;;;;;17.53;11.43;;;7.10;99.90;8.10;94779.00;;;;7396627;19;20132;-73
2022/03/28 04:50:51;;;;;;;18.93;11.07;;;7.20;99.90;7.90;94759.00;;;;7395450;19;20597;-74
2022/03/28 04:53:18;;;;;;;17.80;10.40;;;7.10;99.90;7.80;94785.00;;;;7397243;19;20125;-74
2022/03/28 04:55:46;;;;;;;20.77;11.20;;;7.10;99.90;7.50;94764.00;;;;7396513;19;20476;-74
2022/03/28 04:58:20;;;;;;;20.33;10.60;;;7.00;99.90;7.40;94757.00;;;;7396193;19;20610;-74
2022/03/28 05:00:52;;;;;;;16.77;10.70;;;6.80;99.90;7.40;94786.00;;;;7396705;19;20137;-74
2022/03/28 05:03:30;;;;;;;18.27;11.07;;;6.70;99.90;7.50;94770.00;;;;7397333;19;20136;-74
2022/03/28 05:05:57;;;;;;;19.47;11.83;;;6.70;99.90;8.00;94760.00;;;;7396183;19;20141;-73
2022/03/28 05:08:24;;;;;;;24.03;11.37;;;6.90;99.90;8.20;94772.00;;;;7396879;19;20745;-73
2022/03/28 05:10:58;;;;;;;20.07;11.73;;;7.00;99.90;8.20;94761.00;;;;7389303;19;20132;-74
2022/03/28 05:13:27;;;;;;;21.77;11.53;;;7.10;99.90;8.20;94784.00;;;;7395399;19;20151;-74
2022/03/28 05:15:54;;;;;;;17.87;11.40;;;7.20;99.90;8.30;94777.00;;;;7396218;19;20121;-74
2022/03/28 05:18:27;;;;;;;17.40;10.57;;;7.30;99.90;8.10;94748.00;;;;7399523;19;20133;-74
2022/03/28 05:20:55;;;;;;;16.70;10.77;;;7.30;99.90;8.10;94746.00;;;;7398596;19;20145;-74
2022/03/28 05:23:22;;;;;;;17.73;11.23;;;7.30;99.90;8.10;94755.00;;;;7396024;19;20634;-74
2022/03/28 05:25:55;;;;;;;21.63;12.07;;;7.30;99.90;8.40;94754.00;;;;7396654;19;20224;-75
2022/03/28 05:28:23;;;;;;;18.30;11.60;;;7.30;99.90;8.80;94751.00;;;;7398234;19;20129;-74
2022/03/28 05:30:52;;;;;;;16.80;11.23;;;7.60;99.90;8.80;94773.00;;;;7396976;19;20140;-74
2022/03/28 05:33:26;;;;;;;22.20;12.43;;;7.80;99.90;9.00;94748.00;;;;7401010;19;20469;-74
2022/03/28 05:35:54;;;;;;;19.10;11.47;;;7.90;99.90;9.10;94779.00;;;;7398305;19;20132;-74
2022/03/28 05:38:21;;;;;;;21.00;12.20;;;8.10;99.90;9.00;94757.00;;;;7395745;19;20125;-74
2022/03/28 05:41:08;;;;;;;16.97;11.30;;;8.20;99.90;9.20;94767.00;;;;7396174;19;20209;-74
2022/03/28 05:43:37;;;;;;;18.10;10.97;;;8.20;99.90;9.10;94764.00;;;;7398626;19;20124;-73
2022/03/28 05:46:11;;;;;;;18.97;11.63;;;8.30;99.90;9.10;94757.00;;;;7397076;19;20141;-74
2022/03/28 05:48:39;;;;;;;19.43;11.47;;;8.30;99.90;8.90;94745.00;;;;7392738;19;20161;-74
2022/03/28 05:51:06;;;;;;;19.33;11.27;;;8.20;99.90;8.90;94768.00;;;;7393998;19;20137;-73
2022/03/28 05:53:39;;;;;;;17.73;11.43;;;8.10;99.90;9.10;94783.00;;;;7394029;19;20133;-74
2022/03/28 05:56:07;;;;;;;16.73;10.80;;;8.10;99.90;9.20;94757.00;;;;7395975;19;20133;-74
2022/03/28 05:58:34;;;;;;;19.97;11.40;;;8.20;99.90;9.30;94764.00;;;;7394651;19;20147;-74
2022/03/28 06:01:08;;;;;;;18.83;11.63;;;8.30;99.90;9.70;94752.00;;;;7394812;19;20612;-74
2022/03/28 06:03:37;;;;;;;16.27;11.23;;;8.40;99.90;9.70;94764.00;;;;7394756;19;20125;-74
2022/03/28 06:06:08;;;;;;;20.50;10.73;;;8.70;99.90;9.90;94758.00;;;;7395594;19;20590;-73
2022/03/28 06:08:42;;;;;;;20.70;10.77;;;8.80;99.90;9.80;94767.00;;;;7394279;19;20587;-74
2022/03/28 06:11:10;;;;;;;17.40;10.70;;;8.80;99.90;9.80;94749.00;;;;7391435;19;20133;-74
2022/03/28 06:13:37;;;;;;;15.03;9.63;;;8.90;99.90;9.80;94777.00;;;;7395120;19;20128;-74
2022/03/28 06:16:11;;;;;;;19.00;10.93;;;9.00;99.90;9.80;94781.00;;;;7393747;19;20614;-75
2022/03/28 06:18:48;;;;;;;18.47;11.30;;;9.00;99.90;10.40;94774.00;;;;7393020;19;20137;-74
2022/03/28 06:21:22;;;;;;;23.40;10.40;;;9.20;99.90;10.60;94759.00;;;;7392459;19;20583;-74
2022/03/28 06:23:56;;;;;;;16.33;10.63;;;9.40;99.90;10.80;94775.00;;;;7392972;19;20611;-75
2022/03/28 06:26:31;;;;;;;20.17;10.87;;;9.50;99.90;11.00;94755.00;;;;7392780;19;20241;-74
2022/03/28 06:28:58;;;;;;;17.37;10.50;;;9.80;99.90;11.10;94748.00;;;;7392993;19;20137;-75
2022/03/28 06:31:26;;;;;;;20.67;9.93;;;10.00;99.90;11.20;94777.00;;;;7390771;19;20137;-74
2022/03/28 06:34:02;;;;;;;17.10;10.17;;;10.10;99.90;11.40;94779.00;;;;7392549;19;20140;-74
2022/03/28 06:36:31;;;;;;;14.80;9.30;;;10.20;99.90;11.50;94767.00;;;;7394215;19;20496;-75
2022/03/28 06:39:00;;;;;;;18.48;9.73;;;10.40;99.90;11.80;94751.00;;;;7391762;19;20581;-74
2022/03/28 06:41:43;;;;;;;15.23;10.20;;;10.60;99.90;12.10;94754.00;;;;7393201;19;20169;-74
2022/03/28 06:44:16;;;;;;;16.20;10.30;;;10.90;99.90;12.50;94764.00;;;;7392487;19;20136;-73
2022/03/28 06:46:55;;;;;;;15.43;10.48;;;11.10;99.90;12.60;94772.00;;;;7393803;19;20616;-73
2022/03/28 06:49:27;;;;;;;20.73;10.38;;;11.40;99.90;13.10;94772.00;;;;7391240;19;20612;-74
2022/03/28 06:52:02;;;;;;;14.38;10.15;;;11.70;99.90;13.30;94762.00;;;;7390811;19;20129;-73
2022/03/28 06:54:33;;;;;;;17.42;10.25;;;12.00;99.90;13.50;94759.00;;;;7392287;19;20733;-73
2022/03/28 06:57:00;;;;;;;19.55;11.30;;;12.50;99.90;13.80;94759.00;;;;7393079;19;20611;-74
2022/03/28 06:59:35;;;;;;;15.93;10.18;;;12.80;99.90;14.00;94768.00;;;;7393536;19;20145;-74
2022/03/28 07:02:03;;;;;;;16.20;10.00;;;13.10;99.90;14.40;94757.00;;;;7393500;19;20125;-74
2022/03/28 07:04:31;;;;;;;16.13;11.00;;;13.40;99.90;14.90;94775.00;;;;7391662;19;20168;-73
2022/03/28 07:07:05;;;;;;;19.80;10.40;;;13.50;99.90;15.00;94743.00;;;;7395766;19;20120;-74
2022/03/28 07:09:33;;;;;;;16.92;9.43;;;13.80;99.90;15.40;94744.00;;;;7390692;19;20137;-75
2022/03/28 07:12:03;;;;;;;15.82;11.10;;;14.00;99.90;15.70;94746.00;;;;7392228;19;20141;-75
2022/03/28 07:14:37;;;;;;;16.73;10.77;;;14.30;99.90;15.60;94742.00;;;;7395244;19;20652;-75
2022/03/28 07:17:06;;;;;;;18.90;10.18;;;14.60;99.90;15.90;94763.00;;;;7391177;19;20140;-74
2022/03/28 07:19:34;;;;;;;14.60;9.63;;;14.80;99.90;16.30;94759.00;;;;7391165;19;20212;-74
2022/03/28 07:22:08;;;;;;;18.77;10.38;;;15.10;99.90;16.50;94770.00;;;;7391478;19;20204;-74
2022/03/28 07:24:36;;;;;;;16.67;10.77;;;15.40;99.90;17.10;94736.00;;;;7391462;19;20493;-74
2022/03/28 07:27:04;;;;;;;16.25;9.68;;;15.60;99.90;17.60;94746.00;;;;7390399;19;20161;-73
2022/03/28 07:29:38;;;;;;;16.50;11.10;;;15.80;99.90;17.80;94759.00;;;;7392375;19;20556;-75
2022/03/28 07:32:12;;;;;;;14.77;9.88;;;15.70;99.90;17.70;94772.00;;;;7388837;19;20139;-76
2022/03/28 07:34:47;;;;;;;15.52;9.77;;;15.90;98.10;18.10;94748.00;;;;7390356;19;20622;-74
2022/03/28 07:37:19;;;;;;;16.48;9.38;;;16.10;96.50;18.40;94758.00;;;;7391700;19;20141;-74
2022/03/28 07:40:02;;;;;;;14.95;9.30;;;16.40;99.90;19.10;94704.00;;;;7388335;19;20168;-74
2022/03/28 07:42:40;;;;;;;17.40;10.40;;;16.50;93.70;18.80;94741.00;;;;7389760;19;20124;-76
2022/03/28 07:45:15;;;;;;;15.73;10.02;;;16.60;77.00;18.50;94769.00;;;;7390672;19;20140;-75
2022/03/28 07:47:45;;;;;;;17.70;9.98;;;16.60;80.50;18.60;94745.00;;;;7391068;19;20208;-74
2022/03/28 07:50:18;;;;;;;15.55;9.65;;;16.60;83.30;18.50;94771.00;;;;7390151;19;20133;-74
2022/03/28 07:52:53;;;;;;;15.05;9.63;;;16.60;79.90;18.50;94772.00;;;;7388448;19;20789;-74
2022/03/28 07:55:22;;;;;;;14.75;9.80;;;16.70;76.50;18.50;94744.00;;;;7389724;19;20145;-75
2022/03/28 07:57:50;;;;;;;16.27;10.10;;;16.50;85.70;18.10;94733.00;;;;7390736;19;20136;-75
2022/03/28 08:00:29;;;;;;;13.45;9.20;;;16.40;81.90;18.40;94764.00;;;;7389412;19;20636;-74
2022/03/28 08:02:58;;;;;;;15.77;9.68;;;16.40;80.50;18.10;94757.00;;;;7393496;19;20492;-76
2022/03/28 08:05:33;;;;;;;13.48;9.48;;;16.40;78.30;17.60;94759.00;;;;7391051;19;20128;-77
2022/03/28 08:08:02;;;;;;;16.27;9.43;;;16.70;70.00;18.00;94761.00;;;;7389267;19;20592;-75
2022/03/28 08:10:32;;;;;;;13.10;9.65;;;16.90;68.80;18.20;94734.00;;;;7387590;19;20638;-73
2022/03/28 08:13:06;;;;;;;17.63;10.35;;;17.10;66.80;18.20;94737.00;;;;7397420;19;20137;-74
2022/03/28 08:15:36;;;;;;;17.50;10.30;;;17.10;55.60;18.30;94721.00;;;;7397423;19;20466;-74
2022/03/28 08:18:06;;;;;;;20.35;11.00;;;17.30;55.70;18.70;94726.00;;;;7397589;19;20128;-75
2022/03/28 08:21:29;;;;;;;22.05;11.15;;;17.30;46.50;18.50;94754.00;;;;7397973;19;20137;-74
2022/03/28 08:24:13;;;;;;;17.40;10.50;;;17.20;45.20;18.50;94732.00;;;;7397836;19;20137;-74
2022/03/28 08:26:49;;;;;;;15.80;10.15;;;17.50;45.90;18.90;94745.00;;;;7397356;19;20486;-76
2022/03/28 08:29:19;;;;;;;17.63;10.38;;;18.00;39.70;19.60;94732.00;;;;7397091;19;20159;-74
2022/03/28 08:31:46;;;;;;;17.10;10.20;;;18.00;35.50;19.30;94742.00;;;;7396669;19;20594;-74
2022/03/28 08:34:20;;;;;;;14.63;10.32;;;17.60;38.60;19.30;94733.00;;;;7395712;19;20151;-74
2022/03/28 08:36:48;;;;;;;16.45;10.23;;;17.80;42.60;19.10;94704.00;;;;7395552;19;20725;-74
2022/03/28 08:39:15;;;;;;;16.63;10.90;;;17.90;64.00;20.10;94746.00;;;;7395922;19;20710;-75
2022/03/28 08:41:55;;;;;;;16.75;9.98;;;18.00;32.70;20.00;94709.00;;;;7398249;19;20129;-75
2022/03/28 08:44:26;;;;;;;18.65;9.95;;;18.30;28.60;20.60;94738.00;;;;7396405;19;20606;-74
2022/03/28 08:47:00;;;;;;;19.90;11.18;;;18.80;27.00;21.00;94717.00;;;;7395617;19;20121;-74
2022/03/28 08:49:28;;;;;;;16.27;11.30;;;19.20;21.00;20.70;94749.00;;;;7395796;19;20121;-73
2022/03/28 08:51:55;;;;;;;24.45;11.45;;;19.20;11.40;20.90;94722.00;;;;7395535;19;20137;-77
2022/03/28 08:54:31;;;;;;;15.10;10.98;;;19.50;10.20;21.20;94737.00;;;;7395946;19;20500;-74
2022/03/28 08:56:59;;;;;;;16.60;11.10;;;19.50;5.70;21.10;94732.00;;;;7399065;19;20165;-74
2022/03/28 08:59:26;;;;;;;17.67;11.98;;;19.30;4.90;21.00;94713.00;;;;7395536;19;20133;-74
2022/03/28 09:02:01;;;;;;;14.05;11.07;;;19.00;8.00;22.00;94731.00;;;;7395768;19;20507;-73
2022/03/28 09:04:29;;;;;;;22.13;12.05;;;19.30;15.00;22.00;94712.00;;;;7398188;19;20145;-74
2022/03/28 09:06:57;;;;;;;16.88;11.90;;;19.60;4.50;21.20;94732.00;;;;7395925;19;20643;-73
2022/03/28 09:09:34;;;;;;;22.40;12.88;;;20.00;1.00;20.90;94698.00;;;;7395000;19;20140;-75
2022/03/28 09:12:09;;;;;;;20.48;12.23;;;20.10;1.00;21.20;94727.00;;;;7394735;19;20137;-75
2022/03/28 09:14:45;;;;;;;18.83;12.20;;;19.80;1.00;20.90;94705.00;;;;7400662;19;20136;-73
2022/03/28 09:17:16;;;;;;;18.50;11.98;;;19.80;1.00;21.60;94702.00;;;;7395948;19;20140;-74
2022/03/28 09:20:04;;;;;;;18.88;12.50;;;19.80;1.00;21.40;94703.00;;;;7394395;19;20595;-76
2022/03/28 09:22:41;;;;;;;18.35;11.75;;;20.40;1.00;21.60;94716.00;;;;7394162;19;20145;-74
2022/03/28 09:25:17;;;;;;;15.52;12.25;;;20.10;1.00;21.20;94717.00;;;;7394463;19;20121;-75
2022/03/28 09:27:47;;;;;;;17.35;11.77;;;19.90;1.00;21.20;94718.00;;;;7394377;19;20141;-76
2022/03/28 09:30:20;;;;;;;17.65;11.45;;;20.10;1.00;21.20;94722.00;;;;7394725;19;20484;-76
2022/03/28 09:32:55;;;;;;;15.90;11.13;;;20.50;1.00;21.70;94709.00;;;;7394527;19;20557;-74
2022/03/28 09:35:26;;;;;;;24.40;12.05;;;20.40;1.00;21.00;94699.00;;;;7394395;19;20144;-75
2022/03/28 09:38:04;;;;;;;18.73;11.55;;;20.40;1.00;21.50;94682.00;;;;7394428;19;20148;-75
2022/03/28 09:40:56;;;;;;;17.48;11.18;;;20.40;1.00;22.70;94698.00;;;;7396445;19;20176;-74
2022/03/28 09:43:31;;;;;;;15.52;11.00;;;20.70;1.00;23.50;94679.00;;;;7394565;19;20145;-75
2022/03/28 09:46:05;;;;;;;13.85;10.40;;;20.90;1.00;22.10;94681.00;;;;7394554;19;20137;-73
2022/03/28 09:48:33;;;;;;;16.45;11.02;;;21.00;1.00;22.70;94666.00;;;;7394787;19;20147;-74
2022/03/28 09:51:05;;;;;;;18.55;11.32;;;21.00;1.00;23.50;94663.00;;;;7392847;19;20147;-74
2022/03/28 09:53:39;;;;;;;16.13;11.05;;;21.30;1.00;24.00;94659.00;;;;7394246;19;20144;-74
2022/03/28 09:56:10;;;;;;;14.18;10.95;;;21.60;1.00;24.10;94665.00;;;;7393783;19;20145;-76
2022/03/28 09:58:48;;;;;;;14.57;11.32;;;21.30;1.00;24.20;94668.00;;;;7396596;19;20615;-76
2022/03/28 10:01:32;;;;;;;15.10;11.13;;;21.20;1.00;23.50;94677.00;;;;7394313;19;20160;-74
2022/03/28 10:04:08;;;;;;;12.68;10.07;;;21.40;1.00;23.50;94674.00;;;;7393952;19;20141;-76
2022/03/28 10:06:42;;;;;;;14.75;10.35;;;21.90;1.00;23.90;94656.00;;;;7395240;19;20467;-74
2022/03/28 10:09:10;;;;;;;15.55;10.48;;;22.50;1.00;24.30;94668.00;;;;7392111;19;20165;-77
2022/03/28 10:11:37;;;;;;;16.60;10.63;;;22.80;1.00;23.50;94662.00;;;;7392761;19;20220;-75
2022/03/28 10:14:13;;;;;;;14.07;11.07;;;22.30;1.00;23.00;94667.00;;;;7393849;19;20232;-75
2022/03/28 10:16:41;;;;;;;15.48;10.65;;;21.00;1.00;22.30;94661.00;;;;7392978;19;20165;-75
2022/03/28 10:19:09;;;;;;;15.82;10.68;;;20.90;1.00;22.60;94662.00;;;;7391898;19;20594;-75
2022/03/28 10:21:45;;;;;;;14.80;10.35;;;21.10;1.00;22.50;94663.00;;;;7393276;19;20180;-76
2022/03/28 10:24:24;;;;;;;16.17;10.82;;;21.10;1.00;23.60;94644.00;;;;7394245;19;20137;-75
2022/03/28 10:27:01;;;;;;;13.82;10.57;;;21.00;1.00;23.30;94639.00;;;;7394028;19;20467;-74
2022/03/28 10:29:38;;;;;;;13.63;10.63;;;21.00;1.00;23.60;94647.00;;;;7393688;19;20133;-74
2022/03/28 10:32:20;;;;;;;15.95;10.40;;;21.20;1.00;23.60;94631.00;;;;7392414;19;20149;-75
2022/03/28 10:34:56;;;;;;;14.38;9.98;;;21.90;1.00;24.50;94634.00;;;;7391790;19;20165;-74
2022/03/28 10:37:37;;;;;;;13.13;10.20;;;22.30;1.00;23.90;94644.00;;;;7393211;19;20157;-77
2022/03/28 10:40:27;;;;;;;17.13;10.43;;;22.40;1.00;23.20;94643.00;;;;7393264;19;20136;-76
2022/03/28 10:43:17;;;;;;;14.18;10.50;;;23.00;1.00;24.50;94619.00;;;;7393957;19;20587;-74
2022/03/28 10:46:00;;;;;;;17.77;10.18;;;22.80;1.00;23.20;94626.00;;;;7394462;19;20125;-74
2022/03/28 10:48:42;;;;;;;17.30;10.40;;;22.60;1.00;23.20;94617.00;;;;7392425;19;20636;-74
2022/03/28 10:51:24;;;;;;;14.43;9.07;;;22.40;1.00;23.00;94633.00;;;;7393370;19;20484;-76
2022/03/28 10:54:05;;;;;;;10.70;8.50;;;22.40;1.00;23.00;94628.00;;;;7389775;19;20651;-76
2022/03/28 10:56:40;;;;;;;13.25;9.48;;;22.50;1.00;22.70;94596.00;;;;7391577;19;20128;-73
2022/03/28 10:59:21;;;;;;;18.67;10.00;;;22.50;1.00;23.50;94603.00;;;;7388392;19;20137;-76
2022/03/28 11:01:52;;;;;;;15.43;10.15;;;22.90;1.00;23.40;94594.00;;;;7387185;19;20142;-74
2022/03/28 11:04:26;;;;;;;15.82;9.63;;;22.50;1.00;23.50;94588.00;;;;7386859;19;20128;-75
2022/03/28 11:07:03;;;;;;;15.27;9.35;;;22.30;1.00;23.80;94590.00;;;;7386683;19;20725;-75
2022/03/28 11:10:08;;;;;;;14.32;9.40;;;22.20;1.00;23.90;94597.00;;;;7389705;19;20181;-73
2022/03/28 11:12:39;;;;;;;13.13;9.38;;;22.50;1.00;23.90;94579.00;;;;7387600;19;20145;-76
2022/03/28 11:15:21;;;;;;;13.73;9.68;;;23.10;1.00;24.50;94585.00;;;;7390885;19;20167;-76
2022/03/28 11:18:07;;;;;;;15.07;10.13;;;23.60;1.00;24.30;94584.00;;;;7391881;19;20156;-75